Terminal Aerodrome Forecast
Issued by NWS Topeka, KS

Home | Current Version | Previous Version | Text Only | Print | Product List | Glossary Off
Versions: 1 2 3 4 5 6 7 8 9 10 11 12 13 14 15 16 17 18 19 20 21

896
FTUS43 KTOP 140235 AAB
TAFTOP
TAF AMD
KTOP 140235Z 1403/1424 09006KT P6SM SCT025 OVC040
     FM140330 08005KT 6SM -FZRA SCT019 OVC024
     FM140430 02005KT P6SM OVC024=

USA.gov is the U.S. government's official web portal to all federal, state and local government web resources and services.